Hedley, Texas
Current Conditions -  °F | °C
As of 3:53 AM on Wednesday 26 Nov 2014 (Local Time) from KCDS Reporting Station
Clear Clear  
Wind Chill: 36°   Ceiling: Unl
Heat Index: 42°   Visibility: 10mi
Dew Point: 20°   Wind: 10mph
Humidity: 41%   Direction: 340°NNW
Pressure: 30.02"   Gusts: NA
Location:  34.87°N, 100.66°W
Report Text: KCDS 260953Z AUTO 34009KT 10SM CLR 06/M07 A3002 RMK AO2 SLP161 T00561067
Loading
Personal Weather Stations






























Interactive Weather Map New forecast layout! Learn more

10-Day Weather Forecast

Advertisements
Track Severe Weather on mobile